Time;durP1;ratioP1;P1;durP2;ratioP2;P2;SDS_P1;SDS_P2;PMS_P1;PMS_P2;Temp;Humidity;BMP_temperature;BMP_pressure;BME280_temperature;BME280_humidity;BME280_pressure;Samples;Min_cycle;Max_cycle;Signal;HPM_P1;HPM_P2
2022/10/04 00:00:07;;;;;;;4.55;3.10;;;22.90;99.90;;;;;;1897249;74;21134;-87
2022/10/04 00:02:41;;;;;;;6.67;3.10;;;22.90;99.90;;;;;;1905156;74;21191;-86
2022/10/04 00:05:15;;;;;;;4.17;2.42;;;22.90;99.90;;;;;;1908604;74;21115;-88
2022/10/04 00:07:54;;;;;;;5.20;2.85;;;23.00;99.90;;;;;;1858980;76;21184;-87
2022/10/04 00:10:27;;;;;;;4.25;2.40;;;23.00;99.90;;;;;;1899003;74;21258;-86
2022/10/04 00:13:00;;;;;;;4.60;2.87;;;23.00;99.90;;;;;;1909674;74;21111;-86
2022/10/04 00:15:33;;;;;;;4.35;2.85;;;23.00;99.90;;;;;;1897202;74;21139;-86
2022/10/04 00:18:06;;;;;;;4.08;2.60;;;23.10;99.90;;;;;;1899164;74;21124;-85
2022/10/04 00:20:40;;;;;;;5.05;3.50;;;23.10;99.90;;;;;;1900943;74;21118;-87
2022/10/04 00:23:13;;;;;;;8.78;3.80;;;23.10;99.90;;;;;;1886520;75;21177;-86
2022/10/04 00:25:43;;;;;;;6.45;3.67;;;23.10;99.90;;;;;;1865258;75;21177;-86
2022/10/04 00:28:16;;;;;;;5.83;3.30;;;23.10;99.90;;;;;;1882678;75;21193;-86
2022/10/04 00:30:50;;;;;;;5.95;3.25;;;23.20;99.90;;;;;;1873372;75;21149;-87
2022/10/04 00:33:23;;;;;;;3.95;2.83;;;23.30;99.90;;;;;;1843195;77;21168;-87
2022/10/04 00:35:54;;;;;;;5.33;2.50;;;23.30;99.90;;;;;;1822353;78;21705;-85
2022/10/04 00:38:26;;;;;;;3.62;2.05;;;23.30;99.90;;;;;;1842309;77;21155;-86
2022/10/04 00:41:00;;;;;;;6.30;4.30;;;23.30;99.90;;;;;;1844650;77;21123;-85
2022/10/04 00:43:31;;;;;;;7.45;4.40;;;23.30;99.90;;;;;;1843735;77;21724;-87
2022/10/04 00:46:04;;;;;;;6.47;4.37;;;23.30;99.90;;;;;;1819259;78;21575;-87
2022/10/04 00:48:36;;;;;;;7.03;3.55;;;23.30;99.90;;;;;;1836981;77;21208;-87
2022/10/04 00:51:09;;;;;;;6.20;3.52;;;23.30;99.90;;;;;;1867616;76;21097;-86
2022/10/04 00:53:42;;;;;;;4.30;2.58;;;23.40;99.90;;;;;;1862203;75;21139;-87
2022/10/04 00:56:15;;;;;;;5.97;3.47;;;23.40;99.90;;;;;;1860411;75;21265;-87
2022/10/04 00:58:49;;;;;;;5.55;2.83;;;23.40;99.90;;;;;;1859671;75;21625;-86
2022/10/04 01:01:25;;;;;;;4.78;3.25;;;23.40;99.90;;;;;;1860737;76;21194;-87
2022/10/04 01:04:06;;;;;;;3.08;1.77;;;23.40;99.90;;;;;;1863557;76;21283;-87
2022/10/04 01:06:38;;;;;;;4.03;1.87;;;23.40;99.90;;;;;;1866086;75;21117;-88
2022/10/04 01:09:12;;;;;;;3.37;2.10;;;23.40;99.90;;;;;;1864781;75;21416;-87
2022/10/04 01:11:47;;;;;;;6.17;3.15;;;23.40;99.90;;;;;;1863500;76;21151;-87
2022/10/04 01:14:20;;;;;;;3.98;2.27;;;23.40;99.90;;;;;;1867580;76;22019;-87
2022/10/04 01:16:52;;;;;;;3.80;2.10;;;23.50;99.90;;;;;;1867911;75;21088;-87
2022/10/04 01:19:23;;;;;;;5.92;2.75;;;23.40;99.90;;;;;;1864794;75;21210;-86
2022/10/04 01:21:56;;;;;;;7.20;3.55;;;23.50;99.90;;;;;;1867675;76;21170;-87
2022/10/04 01:24:29;;;;;;;5.12;2.80;;;23.50;99.90;;;;;;1885794;74;21205;-88
2022/10/04 01:27:06;;;;;;;4.30;2.60;;;23.60;99.90;;;;;;1885530;75;21149;-89
2022/10/04 01:29:34;;;;;;;3.72;2.35;;;23.60;99.90;;;;;;1889870;74;21115;-87
2022/10/04 01:32:05;;;;;;;2.75;2.12;;;23.60;99.90;;;;;;1850175;75;21274;-73
2022/10/04 01:34:36;;;;;;;7.95;2.65;;;23.70;99.90;;;;;;1892376;74;21127;-74
2022/10/04 01:37:07;;;;;;;53.85;5.92;;;23.80;99.90;;;;;;1873560;75;22118;-74
2022/10/04 01:39:37;;;;;;;5.00;2.77;;;23.80;99.90;;;;;;1843102;76;21128;-73
2022/10/04 01:42:10;;;;;;;43.68;5.15;;;23.90;99.90;;;;;;1848087;76;21153;-73
2022/10/04 01:44:44;;;;;;;5.60;4.15;;;24.00;99.90;;;;;;1884489;74;21081;-73
2022/10/04 01:47:17;;;;;;;4.03;3.17;;;24.00;99.90;;;;;;1885575;74;21137;-74
2022/10/04 01:49:48;;;;;;;4.25;3.05;;;24.00;99.90;;;;;;1879159;75;21868;-75
2022/10/04 01:52:21;;;;;;;3.87;2.20;;;24.10;99.90;;;;;;1897098;74;21133;-74
2022/10/04 01:54:55;;;;;;;5.03;3.20;;;24.10;99.90;;;;;;1843801;77;21696;-72
2022/10/04 01:57:28;;;;;;;3.45;2.20;;;24.20;99.90;;;;;;1886341;74;21100;-74
2022/10/04 02:00:01;;;;;;;3.22;1.77;;;24.20;99.90;;;;;;1878023;74;21129;-74
2022/10/04 02:02:34;;;;;;;3.83;2.08;;;24.30;99.90;;;;;;1881050;74;21708;-74
2022/10/04 02:05:07;;;;;;;4.22;1.42;;;24.40;99.90;;;;;;1883550;74;21143;-74
2022/10/04 02:07:39;;;;;;;3.27;1.30;;;24.40;99.90;;;;;;1883696;74;21652;-75
2022/10/04 02:10:12;;;;;;;4.03;1.40;;;24.50;99.90;;;;;;1878494;75;21686;-75
2022/10/04 02:12:45;;;;;;;4.30;1.40;;;24.60;99.90;;;;;;1879096;74;21168;-73
2022/10/04 02:15:18;;;;;;;2.92;1.15;;;24.70;99.90;;;;;;1890744;74;21433;-73
2022/10/04 02:17:50;;;;;;;1.50;1.15;;;24.70;99.90;;;;;;1886035;74;21800;-75
2022/10/04 02:20:24;;;;;;;2.62;1.00;;;24.80;99.90;;;;;;1889204;75;21802;-73
2022/10/04 02:22:58;;;;;;;1.37;0.72;;;24.90;99.90;;;;;;1893833;74;21157;-74
2022/10/04 02:25:29;;;;;;;2.08;1.20;;;25.00;99.90;;;;;;1882934;74;21128;-74
2022/10/04 02:28:00;;;;;;;1.65;0.93;;;25.00;99.90;;;;;;1832582;77;21119;-73
2022/10/04 02:30:33;;;;;;;3.92;1.55;;;25.00;99.90;;;;;;1826765;77;21218;-75
2022/10/04 02:33:04;;;;;;;1.77;0.90;;;25.10;99.90;;;;;;1886256;74;21135;-74
2022/10/04 02:35:37;;;;;;;2.77;1.32;;;25.20;99.90;;;;;;1893988;74;21206;-74
2022/10/04 02:38:10;;;;;;;1.85;1.12;;;25.20;99.90;;;;;;1889015;74;21184;-74
2022/10/04 02:40:43;;;;;;;1.70;1.10;;;25.30;99.90;;;;;;1880971;74;21591;-75
2022/10/04 02:43:19;;;;;;;1.75;0.80;;;25.30;99.90;;;;;;1891663;74;21135;-76
2022/10/04 02:45:52;;;;;;;1.60;0.98;;;25.40;99.90;;;;;;1877954;74;21143;-74
2022/10/04 02:48:24;;;;;;;2.35;0.98;;;25.50;99.90;;;;;;1884134;74;21241;-74
2022/10/04 02:50:58;;;;;;;1.30;0.93;;;25.50;99.90;;;;;;1883574;75;21168;-74
2022/10/04 02:53:32;;;;;;;2.10;0.95;;;25.50;99.90;;;;;;1880925;74;21205;-74
2022/10/04 02:56:03;;;;;;;2.42;1.20;;;25.60;99.90;;;;;;1888157;74;21663;-74
2022/10/04 02:58:36;;;;;;;2.15;0.85;;;25.60;99.90;;;;;;1889637;75;21107;-74
2022/10/04 03:01:09;;;;;;;2.60;0.93;;;25.60;99.90;;;;;;1877496;74;21929;-74
2022/10/04 03:03:42;;;;;;;2.90;0.88;;;25.70;99.90;;;;;;1877265;73;21246;-74
2022/10/04 03:06:16;;;;;;;3.12;1.00;;;25.80;99.90;;;;;;1891876;74;21168;-74
2022/10/04 03:08:48;;;;;;;2.50;1.02;;;25.80;99.90;;;;;;1846011;75;21126;-74
2022/10/04 03:11:21;;;;;;;3.30;1.10;;;25.80;99.90;;;;;;1890189;74;21171;-75
2022/10/04 03:13:54;;;;;;;1.62;0.90;;;25.80;99.90;;;;;;1883488;74;21180;-75
2022/10/04 03:16:25;;;;;;;2.35;0.90;;;25.80;99.90;;;;;;1852209;76;21128;-75
2022/10/04 03:18:57;;;;;;;2.62;1.20;;;25.90;99.90;;;;;;1880331;76;21124;-75
2022/10/04 03:21:28;;;;;;;3.77;1.20;;;25.90;99.90;;;;;;1869167;76;21151;-74
2022/10/04 03:24:00;;;;;;;3.08;1.35;;;26.00;99.90;;;;;;1868863;74;21199;-75
2022/10/04 03:26:33;;;;;;;2.75;1.57;;;26.00;99.90;;;;;;1882307;74;21203;-75
2022/10/04 03:29:09;;;;;;;3.37;2.00;;;26.00;99.90;;;;;;1897820;75;21658;-74
2022/10/04 03:31:42;;;;;;;3.37;1.40;;;26.00;99.90;;;;;;1837855;76;22028;-74
2022/10/04 03:34:15;;;;;;;3.33;1.80;;;26.10;99.90;;;;;;1858025;74;21157;-76
2022/10/04 03:36:48;;;;;;;3.27;2.00;;;26.20;99.90;;;;;;1836135;76;21255;-74
2022/10/04 03:39:21;;;;;;;4.97;2.30;;;26.30;99.90;;;;;;1881906;75;21133;-76
2022/10/04 03:41:53;;;;;;;3.40;2.50;;;26.40;99.90;;;;;;1884762;74;21260;-76
2022/10/04 03:44:24;;;;;;;3.35;2.30;;;26.40;99.90;;;;;;1887763;74;21100;-76
2022/10/04 03:46:56;;;;;;;3.17;2.45;;;26.50;99.90;;;;;;1882267;74;21673;-74
2022/10/04 03:49:29;;;;;;;4.58;3.77;;;26.60;99.90;;;;;;1882477;74;21090;-75
2022/10/04 03:52:01;;;;;;;3.27;2.85;;;26.70;99.90;;;;;;1875053;74;21265;-75
2022/10/04 03:54:33;;;;;;;3.62;2.77;;;26.80;99.90;;;;;;1884930;74;21131;-75
2022/10/04 03:57:06;;;;;;;3.47;3.17;;;27.00;99.90;;;;;;1889323;74;21217;-74
2022/10/04 03:59:36;;;;;;;7.30;4.12;;;27.20;99.90;;;;;;1885507;74;21449;-76
2022/10/04 04:02:11;;;;;;;5.62;4.17;;;27.40;99.90;;;;;;1886035;75;21559;-75
2022/10/04 04:04:45;;;;;;;5.87;4.00;;;27.50;99.90;;;;;;1879722;74;21169;-75
2022/10/04 04:07:18;;;;;;;4.22;3.83;;;27.70;99.90;;;;;;1887420;74;21733;-75
2022/10/04 04:09:52;;;;;;;4.70;3.92;;;27.80;99.90;;;;;;1880046;75;21260;-75
2022/10/04 04:12:26;;;;;;;5.65;5.05;;;28.00;99.90;;;;;;1892399;74;21172;-75
2022/10/04 04:15:00;;;;;;;8.95;6.28;;;28.10;99.90;;;;;;1892142;74;21579;-71
2022/10/04 04:17:31;;;;;;;5.90;5.30;;;28.10;99.90;;;;;;1893534;74;21177;-73
2022/10/04 04:20:05;;;;;;;6.35;5.30;;;28.10;99.90;;;;;;1879190;74;21177;-74
2022/10/04 04:22:38;;;;;;;5.50;4.67;;;28.10;99.90;;;;;;1880022;74;21723;-74
2022/10/04 04:25:11;;;;;;;6.55;5.40;;;28.10;99.90;;;;;;1888594;75;21151;-74
2022/10/04 04:27:44;;;;;;;6.15;5.55;;;28.10;99.90;;;;;;1879556;74;21680;-74
2022/10/04 04:30:17;;;;;;;6.92;5.90;;;28.10;99.90;;;;;;1877192;74;21547;-75
2022/10/04 04:32:51;;;;;;;7.30;6.20;;;28.10;99.90;;;;;;1884689;74;21225;-75
2022/10/04 04:35:25;;;;;;;6.97;6.17;;;28.10;99.90;;;;;;1897516;74;21220;-74
2022/10/04 04:37:58;;;;;;;6.75;6.05;;;28.10;99.90;;;;;;1880586;74;21797;-73
2022/10/04 04:40:29;;;;;;;7.28;6.58;;;28.10;99.90;;;;;;1867311;75;21620;-74
2022/10/04 04:43:02;;;;;;;8.10;7.00;;;28.10;99.90;;;;;;1859847;76;21154;-74
2022/10/04 04:45:35;;;;;;;8.33;6.25;;;28.10;99.90;;;;;;1894252;74;21129;-72
2022/10/04 04:48:06;;;;;;;8.35;7.45;;;28.10;99.90;;;;;;1885428;74;21656;-74
2022/10/04 04:50:39;;;;;;;8.35;7.00;;;28.00;99.90;;;;;;1892138;75;21163;-74
2022/10/04 04:53:13;;;;;;;7.28;6.58;;;28.00;99.90;;;;;;1887533;74;21651;-73
2022/10/04 04:55:47;;;;;;;7.95;6.75;;;27.90;99.90;;;;;;1893250;73;21714;-74
2022/10/04 04:58:23;;;;;;;8.80;7.05;;;27.90;99.90;;;;;;1831095;77;21204;-74
2022/10/04 05:00:56;;;;;;;7.80;7.00;;;27.80;99.90;;;;;;1887255;75;21131;-75
2022/10/04 05:03:29;;;;;;;8.25;7.28;;;27.80;99.90;;;;;;1881168;74;21727;-74
2022/10/04 05:06:01;;;;;;;7.78;7.08;;;27.60;99.90;;;;;;1884928;74;21131;-74
2022/10/04 05:08:34;;;;;;;8.33;7.03;;;27.50;99.90;;;;;;1885008;76;21693;-73
2022/10/04 05:11:07;;;;;;;7.28;6.58;;;27.50;99.90;;;;;;1879081;75;21212;-73
2022/10/04 05:13:39;;;;;;;7.30;6.60;;;27.40;99.90;;;;;;1894553;74;21183;-74
2022/10/04 05:16:12;;;;;;;8.53;7.30;;;27.30;99.90;;;;;;1893435;74;21163;-75
2022/10/04 05:18:45;;;;;;;9.03;8.13;;;27.20;99.90;;;;;;1847871;75;21178;-75
2022/10/04 05:21:16;;;;;;;8.50;7.53;;;27.20;99.90;;;;;;1879768;76;21157;-73
2022/10/04 05:23:47;;;;;;;9.03;7.30;;;27.10;99.90;;;;;;1855053;75;21139;-75
2022/10/04 05:26:20;;;;;;;8.60;7.70;;;27.10;99.90;;;;;;1840979;75;21157;-73
2022/10/04 05:28:51;;;;;;;8.58;7.75;;;27.00;99.90;;;;;;1806060;78;21209;-74
2022/10/04 05:31:26;;;;;;;9.20;8.30;;;27.00;99.90;;;;;;1855860;77;21161;-75
2022/10/04 05:33:58;;;;;;;9.90;8.90;;;27.00;99.90;;;;;;1856093;77;21693;-75
2022/10/04 05:36:28;;;;;;;11.00;9.53;;;27.00;99.90;;;;;;1859428;76;21199;-73
2022/10/04 05:39:04;;;;;;;11.40;10.20;;;27.10;99.90;;;;;;1851270;75;21186;-74
2022/10/04 05:41:40;;;;;;;11.88;9.80;;;27.10;99.90;;;;;;1825710;77;21227;-74
2022/10/04 05:44:11;;;;;;;11.85;10.43;;;27.10;99.90;;;;;;1824363;77;21158;-74
2022/10/04 05:46:42;;;;;;;11.53;10.38;;;27.20;99.90;;;;;;1825417;77;21159;-73
2022/10/04 05:49:16;;;;;;;13.15;11.15;;;27.20;99.90;;;;;;1839960;77;21162;-75
2022/10/04 05:51:50;;;;;;;12.47;11.18;;;27.20;99.90;;;;;;1850887;75;21732;-74
2022/10/04 05:54:23;;;;;;;11.03;9.93;;;27.30;99.90;;;;;;1844620;77;21127;-74
2022/10/04 05:56:58;;;;;;;12.25;11.05;;;27.30;99.90;;;;;;1867950;75;21233;-74
2022/10/04 05:59:30;;;;;;;11.25;10.25;;;27.40;99.90;;;;;;1844818;77;21095;-75
2022/10/04 06:02:02;;;;;;;12.05;10.65;;;27.50;99.90;;;;;;1846267;77;21130;-75
2022/10/04 06:04:36;;;;;;;10.65;9.73;;;27.60;99.90;;;;;;1835122;77;21817;-75
2022/10/04 06:07:09;;;;;;;11.45;10.32;;;27.60;99.90;;;;;;1852758;75;21638;-74
2022/10/04 06:09:45;;;;;;;12.05;10.85;;;27.70;99.90;;;;;;1824452;77;21190;-74
2022/10/04 06:12:28;;;;;;;11.03;9.90;;;27.90;99.90;;;;;;1845946;77;21603;-73
2022/10/04 06:14:55;;;;;;;11.33;10.23;;;27.90;99.90;;;;;;1841037;77;21609;-75
2022/10/04 06:17:26;;;;;;;11.53;10.43;;;27.90;99.90;;;;;;1823372;77;21159;-75
2022/10/04 06:19:59;;;;;;;11.38;10.28;;;28.00;99.90;;;;;;1815681;78;21257;-76
2022/10/04 06:22:32;;;;;;;11.78;10.58;;;28.10;99.90;;;;;;1847696;77;21128;-73
2022/10/04 06:25:05;;;;;;;10.35;9.28;;;28.10;99.90;;;;;;1853374;76;21143;-74
2022/10/04 06:27:40;;;;;;;10.82;9.80;;;28.20;99.90;;;;;;1898261;74;21604;-74
2022/10/04 06:30:16;;;;;;;11.18;9.53;;;28.20;99.90;;;;;;1901158;74;21923;-74
2022/10/04 06:32:47;;;;;;;11.60;10.28;;;28.20;99.90;;;;;;1891932;74;21289;-75
2022/10/04 06:35:19;;;;;;;10.95;9.95;;;28.20;99.90;;;;;;1881311;75;21543;-76
2022/10/04 06:37:51;;;;;;;10.20;9.20;;;28.30;99.90;;;;;;1859172;75;21665;-76
2022/10/04 06:40:25;;;;;;;11.48;10.35;;;28.30;99.90;;;;;;1889367;74;21123;-74
2022/10/04 06:42:59;;;;;;;10.80;9.73;;;28.40;99.90;;;;;;1884933;75;21515;-74
2022/10/04 06:45:32;;;;;;;10.95;9.85;;;28.60;99.90;;;;;;1881102;74;21642;-73
2022/10/04 06:48:05;;;;;;;10.68;9.68;;;28.60;99.90;;;;;;1852393;75;21135;-74
2022/10/04 06:50:39;;;;;;;10.45;9.38;;;28.60;99.90;;;;;;1886386;75;21254;-73
2022/10/04 06:53:15;;;;;;;10.38;9.38;;;28.70;99.90;;;;;;1883107;75;21140;-73
2022/10/04 06:55:47;;;;;;;11.20;9.20;;;28.70;99.90;;;;;;1846638;75;21170;-73
2022/10/04 06:58:17;;;;;;;11.93;10.38;;;28.70;99.90;;;;;;1881077;74;21127;-73
2022/10/04 07:00:51;;;;;;;10.58;9.38;;;28.70;99.90;;;;;;1885401;74;21719;-73
2022/10/04 07:03:25;;;;;;;11.05;9.95;;;28.80;99.90;;;;;;1882092;74;21253;-75
2022/10/04 07:05:56;;;;;;;10.60;9.53;;;28.80;99.90;;;;;;1869139;74;21189;-73
2022/10/04 07:08:29;;;;;;;12.07;10.88;;;28.80;99.90;;;;;;1883456;74;21198;-74
2022/10/04 07:11:03;;;;;;;10.53;9.43;;;28.80;99.90;;;;;;1879729;75;21181;-74
2022/10/04 07:13:39;;;;;;;10.65;9.65;;;28.80;99.90;;;;;;1841176;75;21237;-75
2022/10/04 07:16:12;;;;;;;9.35;8.45;;;28.80;99.90;;;;;;1806043;78;21233;-74
2022/10/04 07:18:43;;;;;;;10.58;9.58;;;28.80;99.90;;;;;;1877868;74;21801;-74
2022/10/04 07:21:16;;;;;;;11.28;10.15;;;28.70;99.90;;;;;;1891301;74;21119;-73
2022/10/04 07:23:48;;;;;;;10.82;9.75;;;28.70;99.90;;;;;;1880050;75;21698;-73
2022/10/04 07:26:22;;;;;;;11.45;10.32;;;28.70;99.90;;;;;;1886830;74;21109;-73
2022/10/04 07:31:30;;;;;;;11.10;10.08;;;28.70;99.90;;;;;;1854893;75;21091;-74
2022/10/04 07:34:04;;;;;;;11.08;9.98;;;28.80;99.90;;;;;;1818119;77;21619;-75
2022/10/04 07:36:38;;;;;;;11.25;10.15;;;28.80;99.90;;;;;;1809624;78;21182;-74
2022/10/04 07:39:11;;;;;;;10.13;9.13;;;28.80;99.90;;;;;;1837540;77;21214;-73
2022/10/04 07:41:45;;;;;;;11.08;9.88;;;28.80;99.90;;;;;;1859922;75;21559;-73
2022/10/04 07:44:19;;;;;;;10.03;9.03;;;28.80;99.90;;;;;;1827068;77;21143;-74
2022/10/04 07:46:51;;;;;;;10.58;9.48;;;28.80;99.90;;;;;;1853209;75;21218;-74
2022/10/04 07:49:23;;;;;;;11.10;9.90;;;28.70;99.90;;;;;;1850775;75;21279;-74
2022/10/04 07:51:56;;;;;;;11.50;10.30;;;28.70;99.90;;;;;;1853910;75;21201;-75
2022/10/04 07:54:29;;;;;;;11.40;9.83;;;28.70;99.90;;;;;;1854916;76;21852;-74
2022/10/04 07:57:03;;;;;;;10.48;9.53;;;28.60;99.90;;;;;;1842035;76;21614;-73
2022/10/04 07:59:36;;;;;;;10.98;9.73;;;28.70;99.90;;;;;;1852123;75;21159;-74
2022/10/04 08:02:11;;;;;;;12.23;10.95;;;28.70;99.90;;;;;;1849667;75;21270;-74
2022/10/04 08:04:44;;;;;;;10.48;9.48;;;28.70;99.90;;;;;;1825724;77;21564;-74
2022/10/04 08:07:16;;;;;;;13.45;10.10;;;28.70;99.90;;;;;;1847102;75;21669;-74
2022/10/04 08:09:49;;;;;;;11.12;10.00;;;28.70;99.90;;;;;;1850832;76;21559;-74
2022/10/04 08:12:21;;;;;;;13.30;10.25;;;28.70;99.90;;;;;;1842480;75;21149;-74
2022/10/04 08:14:54;;;;;;;11.28;10.08;;;28.80;99.90;;;;;;1818423;77;21235;-73
2022/10/04 08:17:27;;;;;;;10.55;9.53;;;28.80;99.90;;;;;;1820369;77;21676;-74
2022/10/04 08:20:00;;;;;;;12.15;9.90;;;28.80;99.90;;;;;;1842550;76;21281;-75
2022/10/04 08:22:32;;;;;;;11.28;10.08;;;28.70;99.90;;;;;;1812612;78;21245;-73
2022/10/04 08:25:05;;;;;;;10.90;9.85;;;28.70;99.90;;;;;;1851275;77;21090;-74
2022/10/04 08:27:38;;;;;;;10.80;9.73;;;28.70;99.90;;;;;;1837457;77;21176;-73
2022/10/04 08:30:11;;;;;;;10.95;9.83;;;28.70;99.90;;;;;;1836746;77;21138;-75
2022/10/04 08:32:43;;;;;;;11.00;9.90;;;28.70;99.90;;;;;;1881323;75;21170;-75
2022/10/04 08:35:15;;;;;;;11.95;9.63;;;28.70;99.90;;;;;;1811211;77;21229;-73
2022/10/04 08:37:47;;;;;;;10.72;9.63;;;28.70;99.90;;;;;;1882544;75;21646;-73
2022/10/04 08:40:18;;;;;;;11.90;10.80;;;28.60;99.90;;;;;;1888294;74;21638;-74
2022/10/04 08:42:51;;;;;;;11.40;9.75;;;28.60;99.90;;;;;;1879319;75;21239;-73
2022/10/04 08:45:25;;;;;;;11.08;10.08;;;28.60;99.90;;;;;;1872736;74;21907;-74
2022/10/04 08:47:58;;;;;;;10.93;9.85;;;28.70;99.90;;;;;;1868888;76;21221;-75
2022/10/04 08:50:32;;;;;;;10.98;9.90;;;28.70;99.90;;;;;;1848379;76;21196;-77
2022/10/04 08:53:06;;;;;;;10.80;9.80;;;28.70;99.90;;;;;;1886120;76;21219;-73
2022/10/04 08:55:40;;;;;;;11.75;10.28;;;28.70;99.90;;;;;;1861265;74;21662;-75
2022/10/04 08:58:14;;;;;;;10.95;9.85;;;28.80;99.90;;;;;;1864706;76;21111;-76
2022/10/04 09:00:47;;;;;;;10.45;9.40;;;28.80;99.90;;;;;;1863028;75;21715;-73
2022/10/04 09:03:25;;;;;;;10.25;9.25;;;28.80;99.90;;;;;;1878629;75;21116;-77
2022/10/04 09:05:55;;;;;;;11.30;10.20;;;28.80;99.90;;;;;;1869081;74;21259;-74
2022/10/04 09:08:27;;;;;;;10.82;9.73;;;28.80;99.90;;;;;;1875880;76;21237;-74
2022/10/04 09:10:59;;;;;;;10.80;9.70;;;28.80;99.90;;;;;;1863132;75;21826;-74
2022/10/04 09:13:33;;;;;;;11.68;10.40;;;28.80;99.90;;;;;;1837008;76;21205;-74
2022/10/04 09:16:06;;;;;;;13.08;11.38;;;28.80;99.90;;;;;;1872734;74;21199;-73
2022/10/04 09:18:39;;;;;;;11.30;10.20;;;28.70;99.90;;;;;;1883093;75;21140;-75
2022/10/04 09:21:13;;;;;;;11.75;10.23;;;28.70;99.90;;;;;;1883686;74;21094;-75
2022/10/04 09:23:46;;;;;;;11.88;10.68;;;28.70;99.90;;;;;;1870580;76;21487;-74
2022/10/04 09:26:19;;;;;;;10.28;9.28;;;28.70;99.90;;;;;;1886983;74;21127;-74
2022/10/04 09:28:54;;;;;;;10.98;9.40;;;28.70;99.90;;;;;;1838163;75;21606;-75
2022/10/04 09:31:29;;;;;;;10.75;9.65;;;28.70;99.90;;;;;;1873550;75;21172;-73
2022/10/04 09:34:02;;;;;;;10.13;9.15;;;28.60;99.90;;;;;;1880135;75;21182;-74
2022/10/04 09:36:39;;;;;;;10.90;9.88;;;28.60;99.90;;;;;;1875388;74;21198;-73
2022/10/04 09:39:10;;;;;;;11.05;10.05;;;28.60;99.90;;;;;;1883222;74;21640;-73
2022/10/04 09:41:43;;;;;;;11.15;10.05;;;28.60;99.90;;;;;;1879295;74;21123;-74
2022/10/04 09:44:17;;;;;;;11.83;10.65;;;28.50;99.90;;;;;;1888277;75;21117;-74
2022/10/04 09:46:50;;;;;;;11.50;10.30;;;28.50;99.90;;;;;;1875385;75;21156;-73
2022/10/04 09:49:26;;;;;;;10.85;9.85;;;28.50;99.90;;;;;;1880595;74;21226;-74
2022/10/04 09:52:00;;;;;;;11.45;10.35;;;28.50;99.90;;;;;;1893759;74;21147;-75
2022/10/04 09:54:31;;;;;;;13.10;10.18;;;28.50;99.90;;;;;;1905598;74;21658;-74
2022/10/04 09:57:05;;;;;;;12.05;10.13;;;28.50;99.90;;;;;;1909886;74;21139;-75
2022/10/04 09:59:38;;;;;;;11.73;10.63;;;28.50;99.90;;;;;;1883523;74;21141;-75
2022/10/04 10:02:12;;;;;;;10.82;9.65;;;28.40;99.90;;;;;;1884998;74;21136;-74
2022/10/04 10:04:47;;;;;;;10.58;9.65;;;28.40;99.90;;;;;;1856283;77;21949;-74
2022/10/04 10:07:20;;;;;;;12.58;10.38;;;28.30;99.90;;;;;;1889431;74;21135;-75
2022/10/04 10:15:03;;;;;;;11.18;10.18;;;28.20;99.90;;;;;;1881789;76;21097;-74
2022/10/04 10:17:36;;;;;;;10.95;9.85;;;28.20;99.90;;;;;;1880243;74;21183;-74
2022/10/04 10:20:10;;;;;;;13.43;10.10;;;28.20;99.90;;;;;;1876155;74;21637;-74
2022/10/04 10:22:42;;;;;;;11.78;10.58;;;28.20;99.90;;;;;;1904616;74;21150;-74
2022/10/04 10:25:15;;;;;;;11.88;10.68;;;28.20;99.90;;;;;;1897284;74;21221;-74
2022/10/04 10:27:46;;;;;;;12.25;11.05;;;28.10;99.90;;;;;;1892364;74;21193;-74
2022/10/04 10:30:19;;;;;;;11.90;10.80;;;28.10;99.90;;;;;;1887837;74;21670;-74
2022/10/04 10:32:53;;;;;;;12.07;10.88;;;28.00;99.90;;;;;;1896056;74;21642;-73
2022/10/04 10:35:27;;;;;;;11.28;10.10;;;28.00;99.90;;;;;;1872788;76;21254;-73
2022/10/04 10:38:00;;;;;;;11.60;9.98;;;28.00;99.90;;;;;;1885883;74;21109;-74
2022/10/04 10:40:35;;;;;;;19.17;16.82;;;28.00;99.90;;;;;;1905634;74;21166;-73
2022/10/04 10:43:11;;;;;;;11.65;10.45;;;28.00;99.90;;;;;;1908255;74;21529;-73
2022/10/04 10:45:44;;;;;;;12.33;10.93;;;28.00;99.90;;;;;;1899488;74;21728;-72
2022/10/04 10:48:18;;;;;;;13.95;11.48;;;27.90;99.90;;;;;;1889915;74;21111;-73
2022/10/04 10:50:57;;;;;;;13.25;11.28;;;27.90;99.90;;;;;;1880657;74;21203;-75
2022/10/04 10:53:28;;;;;;;12.30;11.00;;;27.90;99.90;;;;;;1858449;76;21597;-73
2022/10/04 10:56:01;;;;;;;18.62;15.43;;;27.80;99.90;;;;;;1878549;74;21078;-74
2022/10/04 10:58:32;;;;;;;17.48;12.95;;;27.80;99.90;;;;;;1890984;74;22044;-74
2022/10/04 11:01:11;;;;;;;13.88;12.40;;;27.70;99.90;;;;;;1898765;74;21161;-74
2022/10/04 11:03:42;;;;;;;11.75;10.53;;;27.70;99.90;;;;;;1889563;75;21567;-74
2022/10/04 11:06:18;;;;;;;16.30;11.25;;;27.70;99.90;;;;;;1890795;74;21644;-73
2022/10/04 11:08:54;;;;;;;13.30;12.05;;;27.60;99.90;;;;;;1893836;75;21237;-73
2022/10/04 11:11:26;;;;;;;14.00;12.60;;;27.70;99.90;;;;;;1892965;74;21084;-73
2022/10/04 11:13:59;;;;;;;17.07;14.15;;;27.60;99.90;;;;;;1895737;74;21150;-73
2022/10/04 11:16:33;;;;;;;14.80;13.22;;;27.60;99.90;;;;;;1911395;74;21520;-74
2022/10/04 11:19:06;;;;;;;14.05;12.65;;;27.60;99.90;;;;;;1918500;74;21177;-74
2022/10/04 11:21:38;;;;;;;15.85;14.00;;;27.60;99.90;;;;;;1897645;74;21149;-73
2022/10/04 11:24:13;;;;;;;16.05;14.33;;;27.50;99.90;;;;;;1877831;74;21740;-73
2022/10/04 11:26:46;;;;;;;19.02;15.30;;;27.50;99.90;;;;;;1881211;74;21565;-73
2022/10/04 11:29:20;;;;;;;24.32;17.12;;;27.50;99.90;;;;;;1880682;74;21713;-74
2022/10/04 11:31:53;;;;;;;22.02;17.67;;;27.50;99.90;;;;;;1900758;74;21678;-74
2022/10/04 11:34:27;;;;;;;19.82;14.43;;;27.50;99.90;;;;;;1910803;74;21752;-73
2022/10/04 11:37:00;;;;;;;18.12;13.45;;;27.50;99.90;;;;;;1885518;74;21609;-74
2022/10/04 11:39:34;;;;;;;14.87;12.95;;;27.40;99.90;;;;;;1899394;75;21158;-74
2022/10/04 11:42:13;;;;;;;14.33;12.80;;;27.40;99.90;;;;;;1905137;75;21201;-75
2022/10/04 11:44:43;;;;;;;13.93;11.60;;;27.40;99.90;;;;;;1875556;74;21587;-74
2022/10/04 11:47:17;;;;;;;15.45;11.85;;;27.40;99.90;;;;;;1898125;75;21627;-74
2022/10/04 11:49:52;;;;;;;16.67;12.23;;;27.40;99.90;;;;;;1880103;75;21131;-75
2022/10/04 11:52:24;;;;;;;15.35;12.45;;;27.40;99.90;;;;;;1903620;74;21075;-75
2022/10/04 11:54:57;;;;;;;15.90;13.18;;;27.40;99.90;;;;;;1888783;75;22051;-72
2022/10/04 11:57:30;;;;;;;18.07;12.05;;;27.40;99.90;;;;;;1888675;75;21208;-74
2022/10/04 12:00:03;;;;;;;18.35;12.28;;;27.30;99.90;;;;;;1887022;75;21170;-74
2022/10/04 12:02:34;;;;;;;12.82;11.53;;;27.30;99.90;;;;;;1899000;75;21277;-76
2022/10/04 12:05:06;;;;;;;17.60;12.43;;;27.30;99.90;;;;;;1886252;74;22041;-74
2022/10/04 12:07:38;;;;;;;14.00;12.28;;;27.30;99.90;;;;;;1902606;75;21139;-74
2022/10/04 12:10:12;;;;;;;15.18;12.07;;;27.20;99.90;;;;;;1897028;74;21572;-73
2022/10/04 12:12:46;;;;;;;14.68;11.83;;;27.20;99.90;;;;;;1886623;75;21647;-74
2022/10/04 12:15:19;;;;;;;13.10;11.78;;;27.20;99.90;;;;;;1899932;74;21170;-73
2022/10/04 12:17:51;;;;;;;12.85;11.25;;;27.10;99.90;;;;;;1903029;75;21632;-74
2022/10/04 12:20:27;;;;;;;13.70;10.78;;;27.10;99.90;;;;;;1889171;74;21228;-73
2022/10/04 12:22:59;;;;;;;13.03;10.38;;;27.10;99.90;;;;;;1894054;75;21165;-73
2022/10/04 12:25:32;;;;;;;11.95;10.40;;;27.10;99.90;;;;;;1902718;74;21159;-76
2022/10/04 12:28:10;;;;;;;12.07;10.78;;;27.10;99.90;;;;;;1897599;75;21275;-74
2022/10/04 12:30:39;;;;;;;13.78;10.60;;;27.10;99.90;;;;;;1851946;76;21469;-75
2022/10/04 12:33:11;;;;;;;13.58;11.00;;;27.10;99.90;;;;;;1855741;76;21547;-74
2022/10/04 12:35:46;;;;;;;12.82;10.25;;;27.10;99.90;;;;;;1853519;75;21147;-74
2022/10/04 12:38:22;;;;;;;11.93;10.65;;;27.10;99.90;;;;;;1864325;76;21528;-74
2022/10/04 12:40:55;;;;;;;13.55;9.60;;;27.10;99.90;;;;;;1858601;76;21089;-77
2022/10/04 12:43:29;;;;;;;5.03;4.15;;;27.10;99.90;;;;;;1862953;76;21166;-75
2022/10/04 12:46:01;;;;;;;3.52;2.30;;;27.00;99.90;;;;;;1851456;75;21147;-75
2022/10/04 12:48:35;;;;;;;4.78;2.15;;;26.90;99.90;;;;;;1850341;75;21536;-74
2022/10/04 12:51:08;;;;;;;3.47;2.30;;;26.80;99.90;;;;;;1836095;77;21954;-75
2022/10/04 12:53:40;;;;;;;3.85;1.90;;;26.70;99.90;;;;;;1858178;76;21099;-74
2022/10/04 12:56:17;;;;;;;1.87;1.30;;;26.50;99.90;;;;;;1858938;77;21617;-74
2022/10/04 12:58:46;;;;;;;3.15;1.67;;;26.40;99.90;;;;;;1860344;77;21135;-75
2022/10/04 13:01:18;;;;;;;5.42;2.65;;;26.30;99.90;;;;;;1851297;75;21654;-75
2022/10/04 13:03:51;;;;;;;3.62;2.50;;;26.20;99.90;;;;;;1852864;75;22020;-74
2022/10/04 13:06:27;;;;;;;3.83;2.57;;;26.10;99.90;;;;;;1852637;77;21131;-75
2022/10/04 13:09:00;;;;;;;6.78;3.30;;;25.90;99.90;;;;;;1854950;76;21515;-75
2022/10/04 13:11:33;;;;;;;8.98;4.50;;;25.70;99.90;;;;;;1850388;75;21210;-75
2022/10/04 13:14:06;;;;;;;8.50;3.87;;;25.50;99.90;;;;;;1847665;75;21150;-74